METAR Data
IDs: Format: Raw Decoded Include TAF

Data at: 2353 UTC 29 May 2020

FNLU 292300Z VRB02KT 9999 SCT020 24/22 Q1010 NOSIG

TAF FNLU 292300Z 3000/3106 16004KT 9999 FEW020
  TEMPO 3003/3007 VRB03KT 8000 SCT015 BKN040
  BECMG 3013/3015 28009KT 9000 NSC


No METAR found for FNCA

TAF FNCA 292300Z 3000/3012 VRB02KT 9000 SCT040 BKN025
  PROB30
  TEMPO 3003/3007 21008KT 4000 BR FEW018


No METAR found for FNBG

TAF FNBG 292300Z 3000/3012 VRB03KT 9000 SCT018 BKN040
  BECMG 3010/3012 32008KT 9999 FEW020


No METAR found for FNHU

TAF FNHU 292300Z 3000/3012 11004KT 9999 BKN050
  BECMG 3010/3012 06008KT 9000 NSC


No METAR found for FNUE
No TAF found for FNUE

No METAR found for FNGI

TAF FNGI 292300Z 3000/3012 09006KT CAVOK

No METAR found for FNUB

TAF FNUB 292300Z 3000/3012 22005KT CAVOK
  BECMG 3010/3012 08008KT


No METAR found for FNMO

TAF FNMO 292300Z 3000/3012 15006KT CAVOK
  BECMG 3010/3012 25004KT


No METAR found for FNUG
No TAF found for FNUG

No METAR found for FNMA

TAF FNMA 292300Z 3000/3012 VRB03KT 9999 FEW015
  BECMG 3005/3007 13006KT


No METAR found for FNSA
No TAF found for FNSA

No METAR found for FNSO

TAF FNSO 292300Z 3000/3012 VRB03KT 9999 FEW018 BKN025
  PROB30
  TEMPO 3004/3008 18005KT 5000 BR SCT018


No METAR found for FNBC
No TAF found for FNBC

No METAR found for FNSU
No TAF found for FNSU

No METAR found for FNDU

TAF FNDU 292300Z 3000/3012 VRB02KT 9000 SCT020
  TEMPO 3013/3017 11006KT 9999 FEW040


No METAR found for FNME

TAF FNME 292300Z 2900/2912 06008KT CAVOK

No METAR found for FNCT

TAF FNCT 292300Z 3000/3012 VRB03KT 9000 SCT018 BKN040
  BECMG 3003/3007 08005KT 9999 FEW025


No METAR found for FNKU

TAF FNKU 292300Z 3000/3012 17006KT 9999 BKN040
  TEMPO 3010/3012 09008KT